createdAt,value
2023-07-11T00:01:17.392Z,100.00
2023-07-11T00:03:47.166Z,100.00
2023-07-11T00:06:20.123Z,100.00
2023-07-11T00:08:47.580Z,100.00
2023-07-11T00:11:17.768Z,100.00
2023-07-11T00:13:45.291Z,100.00
2023-07-11T00:16:14.668Z,100.00
2023-07-11T00:18:42.009Z,100.00
2023-07-11T00:21:09.223Z,100.00
2023-07-11T00:23:36.778Z,100.00
2023-07-11T00:26:05.338Z,100.00
2023-07-11T00:28:32.788Z,100.00
2023-07-11T00:31:00.572Z,100.00
2023-07-11T00:33:30.884Z,100.00
2023-07-11T00:35:58.280Z,100.00
2023-07-11T00:38:25.389Z,100.00
2023-07-11T00:40:53.180Z,100.00
2023-07-11T00:43:21.569Z,100.00
2023-07-11T00:46:14.069Z,100.00
2023-07-11T00:48:59.327Z,100.00
2023-07-11T00:51:34.942Z,100.00
2023-07-11T00:54:04.957Z,100.00
2023-07-11T00:56:36.792Z,100.00
2023-07-11T00:59:04.492Z,100.00
2023-07-11T01:01:32.311Z,100.00
2023-07-11T01:03:59.631Z,100.00
2023-07-11T01:06:29.696Z,100.00
2023-07-11T01:08:59.387Z,100.00
2023-07-11T01:11:29.259Z,100.00
2023-07-11T01:13:57.393Z,100.00
2023-07-11T01:16:24.758Z,100.00
2023-07-11T01:18:52.326Z,100.00
2023-07-11T01:21:20.971Z,100.00
2023-07-11T01:23:48.777Z,100.00
2023-07-11T01:26:16.668Z,100.00
2023-07-11T01:28:44.136Z,100.00
2023-07-11T01:31:11.464Z,100.00
2023-07-11T01:33:38.625Z,100.00
2023-07-11T01:36:06.171Z,100.00
2023-07-11T01:38:33.276Z,100.00
2023-07-11T01:41:00.683Z,100.00
2023-07-11T01:43:28.194Z,100.00
2023-07-11T01:45:55.462Z,100.00
2023-07-11T01:48:22.910Z,100.00
2023-07-11T01:50:49.803Z,100.00
2023-07-11T01:53:17.461Z,100.00
2023-07-11T01:55:45.446Z,100.00
2023-07-11T01:58:12.470Z,100.00
2023-07-11T02:00:40.498Z,100.00
2023-07-11T02:03:07.875Z,100.00
2023-07-11T02:05:35.328Z,100.00
2023-07-11T02:08:02.344Z,100.00
2023-07-11T02:10:32.364Z,100.00
2023-07-11T02:12:59.551Z,100.00
2023-07-11T02:15:26.946Z,100.00
2023-07-11T02:17:53.976Z,100.00
2023-07-11T02:20:21.383Z,100.00
2023-07-11T02:22:48.304Z,100.00
2023-07-11T02:25:15.381Z,100.00
2023-07-11T02:27:42.178Z,100.00
2023-07-11T02:30:09.779Z,100.00
2023-07-11T02:32:36.866Z,100.00
2023-07-11T02:35:03.949Z,100.00
2023-07-11T02:37:30.724Z,100.00
2023-07-11T02:39:57.849Z,100.00
2023-07-11T02:42:24.756Z,100.00
2023-07-11T02:44:52.192Z,100.00
2023-07-11T02:47:19.303Z,100.00
2023-07-11T02:49:46.463Z,100.00
2023-07-11T02:52:16.369Z,100.00
2023-07-11T02:54:43.241Z,100.00
2023-07-11T02:57:11.409Z,100.00
2023-07-11T02:59:38.870Z,100.00
2023-07-11T03:02:05.914Z,100.00
2023-07-11T03:04:35.190Z,100.00
2023-07-11T03:07:02.213Z,100.00
2023-07-11T03:09:29.578Z,100.00
2023-07-11T03:11:56.791Z,100.00
2023-07-11T03:14:24.055Z,100.00
2023-07-11T03:16:52.703Z,100.00
2023-07-11T03:19:21.510Z,100.00
2023-07-11T03:21:51.555Z,100.00
2023-07-11T03:24:18.523Z,100.00
2023-07-11T03:26:47.146Z,100.00
2023-07-11T03:29:15.422Z,100.00
2023-07-11T03:31:43.755Z,100.00
2023-07-11T03:34:10.535Z,100.00
2023-07-11T03:36:37.686Z,100.00
2023-07-11T03:39:05.125Z,100.00
2023-07-11T03:41:31.832Z,100.00
2023-07-11T03:43:58.647Z,100.00
2023-07-11T03:46:25.870Z,100.00
2023-07-11T03:48:55.558Z,100.00
2023-07-11T03:51:22.650Z,100.00
2023-07-11T03:53:49.563Z,100.00
2023-07-11T03:56:16.581Z,100.00
2023-07-11T03:58:43.823Z,100.00
2023-07-11T04:01:10.761Z,100.00
2023-07-11T04:03:37.623Z,100.00
2023-07-11T04:06:04.566Z,100.00
2023-07-11T04:08:31.821Z,100.00
2023-07-11T04:11:01.894Z,100.00
2023-07-11T04:13:29.295Z,100.00
2023-07-11T04:15:56.682Z,100.00
2023-07-11T04:18:25.964Z,100.00
2023-07-11T04:20:52.829Z,100.00
2023-07-11T04:23:19.676Z,100.00
2023-07-11T04:25:46.732Z,100.00
2023-07-11T04:28:13.763Z,100.00
2023-07-11T04:30:40.668Z,100.00
2023-07-11T04:33:07.901Z,100.00
2023-07-11T04:35:35.091Z,100.00
2023-07-11T04:38:01.952Z,100.00
2023-07-11T04:40:29.050Z,100.00
2023-07-11T04:43:00.007Z,100.00
2023-07-11T04:45:27.326Z,100.00
2023-07-11T04:47:54.623Z,100.00
2023-07-11T04:50:21.638Z,100.00
2023-07-11T04:52:48.604Z,100.00
2023-07-11T04:55:15.484Z,100.00
2023-07-11T04:57:42.453Z,100.00
2023-07-11T05:00:10.153Z,100.00
2023-07-11T05:02:37.244Z,100.00
2023-07-11T05:05:04.418Z,100.00
2023-07-11T05:07:31.532Z,99.06
2023-07-11T05:09:59.629Z,98.85
2023-07-11T05:12:27.658Z,100.00
2023-07-11T05:14:55.081Z,100.00
2023-07-11T05:17:21.941Z,100.00
2023-07-11T05:19:49.521Z,94.80
2023-07-11T05:22:16.500Z,90.82
2023-07-11T05:24:43.271Z,89.29
2023-07-11T05:27:10.023Z,88.19
2023-07-11T05:29:37.626Z,88.30
2023-07-11T05:32:04.669Z,87.91
2023-07-11T05:34:34.220Z,87.46
2023-07-11T05:37:02.809Z,86.54
2023-07-11T05:39:29.800Z,87.61
2023-07-11T05:41:58.612Z,86.80
2023-07-11T05:44:26.561Z,85.80
2023-07-11T05:46:53.843Z,87.14
2023-07-11T05:49:20.836Z,81.93
2023-07-11T05:51:47.990Z,80.43
2023-07-11T05:54:15.185Z,78.43
2023-07-11T05:56:43.164Z,77.75
2023-07-11T05:59:10.026Z,76.92
2023-07-11T06:01:37.322Z,79.21
2023-07-11T06:04:12.222Z,77.74
2023-07-11T06:06:46.902Z,80.48
2023-07-11T06:09:19.580Z,80.22
2023-07-11T06:11:48.871Z,79.45
2023-07-11T06:14:19.760Z,77.89
2023-07-11T06:16:50.565Z,74.02
2023-07-11T06:19:18.293Z,73.16
2023-07-11T06:21:48.402Z,72.77
2023-07-11T06:24:15.180Z,73.76
2023-07-11T06:26:42.316Z,72.96
2023-07-11T06:29:09.262Z,68.73
2023-07-11T06:31:36.363Z,66.16
2023-07-11T06:34:03.617Z,64.89
2023-07-11T06:36:30.437Z,66.41
2023-07-11T06:38:57.426Z,64.71
2023-07-11T06:41:24.405Z,63.40
2023-07-11T06:43:51.260Z,59.06
2023-07-11T06:46:18.334Z,56.32
2023-07-11T06:48:45.428Z,54.67
2023-07-11T06:51:12.457Z,50.97
2023-07-11T06:53:39.350Z,50.70
2023-07-11T06:56:06.629Z,47.97
2023-07-11T06:58:33.669Z,48.50
2023-07-11T07:01:13.420Z,48.57
2023-07-11T07:03:46.335Z,46.86
2023-07-11T07:06:14.820Z,47.23
2023-07-11T07:08:42.583Z,45.46
2023-07-11T07:11:10.022Z,44.57
2023-07-11T07:13:37.316Z,44.81
2023-07-11T07:16:06.188Z,44.27
2023-07-11T07:18:36.829Z,42.61
2023-07-11T07:21:04.877Z,42.87
2023-07-11T07:23:35.131Z,42.88
2023-07-11T07:26:04.543Z,42.85
2023-07-11T07:28:34.050Z,42.79
2023-07-11T07:31:04.112Z,42.53
2023-07-11T07:33:31.167Z,42.95
2023-07-11T07:36:06.516Z,43.17
2023-07-11T07:38:34.141Z,43.13
2023-07-11T07:41:04.488Z,42.23
2023-07-11T07:43:32.576Z,41.35
2023-07-11T07:46:01.991Z,41.46
2023-07-11T07:48:29.142Z,41.36
2023-07-11T07:51:07.478Z,40.55
2023-07-11T07:53:38.351Z,43.13
2023-07-11T07:56:24.695Z,41.17
2023-07-11T07:58:52.102Z,40.32
2023-07-11T08:01:21.662Z,38.61
2023-07-11T08:03:48.875Z,39.43
2023-07-11T08:06:18.723Z,39.44
2023-07-11T08:08:47.621Z,40.36
2023-07-11T08:11:15.832Z,39.42
2023-07-11T08:16:28.830Z,38.01
2023-07-11T08:18:58.519Z,38.32
2023-07-11T08:21:28.700Z,39.44
2023-07-11T08:23:55.734Z,39.39
2023-07-11T08:26:23.671Z,38.70
2023-07-11T08:28:52.106Z,39.12
2023-07-11T08:31:19.151Z,39.25
2023-07-11T08:33:46.281Z,39.41
2023-07-11T08:36:13.213Z,37.92
2023-07-11T08:38:40.025Z,40.67
2023-07-11T08:41:23.515Z,39.31
2023-07-11T08:43:52.888Z,38.36
2023-07-11T08:46:23.697Z,37.95
2023-07-11T08:48:55.504Z,38.69
2023-07-11T08:51:38.332Z,37.26
2023-07-11T08:54:22.216Z,36.99
2023-07-11T08:57:03.915Z,36.47
2023-07-11T09:00:09.479Z,36.66
2023-07-11T09:02:48.651Z,37.45
2023-07-11T09:05:30.383Z,36.10
2023-07-11T09:07:58.241Z,34.98
2023-07-11T09:10:48.148Z,36.02
2023-07-11T09:13:31.544Z,34.70
2023-07-11T09:16:36.921Z,36.10
2023-07-11T09:19:22.149Z,36.68
2023-07-11T09:22:26.756Z,37.45
2023-07-11T09:24:58.314Z,36.16
2023-07-11T09:27:37.605Z,35.07
2023-07-11T09:30:41.669Z,35.86
2023-07-11T09:33:24.555Z,36.12
2023-07-11T09:35:53.671Z,35.78
2023-07-11T09:38:32.279Z,36.49
2023-07-11T09:40:59.177Z,35.45
2023-07-11T09:43:26.359Z,36.41
2023-07-11T09:45:53.426Z,35.43
2023-07-11T09:48:27.818Z,36.65
2023-07-11T09:51:29.583Z,35.86
2023-07-11T09:53:57.388Z,37.38
2023-07-11T09:56:26.528Z,35.59
2023-07-11T09:59:01.923Z,37.68
2023-07-11T10:01:34.333Z,37.50
2023-07-11T10:04:02.761Z,37.15
2023-07-11T10:09:13.943Z,38.02
2023-07-11T10:11:41.002Z,38.23
2023-07-11T10:14:18.912Z,37.84
2023-07-11T10:16:47.695Z,38.01
2023-07-11T10:19:17.389Z,37.69
2023-07-11T10:21:58.355Z,37.62
2023-07-11T10:24:39.254Z,37.87
2023-07-11T10:27:12.360Z,37.91
2023-07-11T10:29:47.775Z,38.71
2023-07-11T10:32:21.848Z,38.56
2023-07-11T10:35:01.240Z,39.35
2023-07-11T10:37:40.988Z,38.68
2023-07-11T10:40:26.913Z,38.25
2023-07-11T10:42:56.046Z,38.83
2023-07-11T10:45:28.967Z,39.29
2023-07-11T10:48:32.055Z,39.13
2023-07-11T10:51:25.828Z,40.34
2023-07-11T10:54:26.393Z,38.44
2023-07-11T10:57:01.380Z,39.21
2023-07-11T10:59:32.401Z,40.25
2023-07-11T11:02:11.899Z,41.47
2023-07-11T11:04:57.125Z,39.36
2023-07-11T11:07:46.959Z,40.51
2023-07-11T11:10:39.587Z,40.22
2023-07-11T11:13:15.876Z,39.46
2023-07-11T11:16:13.703Z,41.28
2023-07-11T11:18:55.546Z,40.38
2023-07-11T11:21:47.547Z,40.70
2023-07-11T11:24:58.495Z,39.41
2023-07-11T11:27:33.141Z,38.54
2023-07-11T11:30:03.156Z,38.81
2023-07-11T11:32:35.575Z,39.41
2023-07-11T11:35:15.440Z,40.51
2023-07-11T11:38:35.117Z,39.42
2023-07-11T11:41:10.069Z,39.94
2023-07-11T11:45:43.631Z,38.87
2023-07-11T11:46:30.546Z,40.32
2023-07-11T11:51:35.107Z,39.23
2023-07-11T11:54:06.676Z,39.35
2023-07-11T11:56:39.244Z,38.60
2023-07-11T11:59:08.366Z,37.94
2023-07-11T12:01:40.123Z,38.21
2023-07-11T12:04:28.966Z,40.51
2023-07-11T12:07:30.312Z,39.22
2023-07-11T12:09:57.701Z,37.96
2023-07-11T12:12:37.957Z,38.10
2023-07-11T12:15:13.938Z,40.43
2023-07-11T12:17:40.709Z,38.62
2023-07-11T12:20:08.024Z,38.97
2023-07-11T12:22:38.415Z,39.58
2023-07-11T12:32:29.940Z,37.58
2023-07-11T12:34:57.972Z,38.19
2023-07-11T12:37:28.347Z,37.15
2023-07-11T12:40:13.648Z,37.73
2023-07-11T12:42:53.151Z,38.88
2023-07-11T12:45:25.504Z,38.19
2023-07-11T12:48:24.542Z,37.80
2023-07-11T12:50:54.920Z,39.09
2023-07-11T13:05:13.388Z,38.46
2023-07-11T13:07:42.684Z,37.55
2023-07-11T13:10:25.719Z,37.30
2023-07-11T13:12:52.815Z,38.66
2023-07-11T13:15:22.747Z,37.82
2023-07-11T13:17:55.081Z,37.97
2023-07-11T13:20:26.071Z,39.70
2023-07-11T13:22:53.925Z,39.30
2023-07-11T13:25:34.072Z,38.59
2023-07-11T13:28:04.828Z,39.82
2023-07-11T13:30:37.757Z,38.47
2023-07-11T13:33:23.902Z,38.42
2023-07-11T13:36:07.708Z,41.57
2023-07-11T13:38:44.983Z,39.09
2023-07-11T13:41:28.606Z,39.83
2023-07-11T13:44:14.256Z,38.87
2023-07-11T13:46:41.161Z,39.32
2023-07-11T13:49:15.230Z,39.49
2023-07-11T13:51:42.546Z,39.99
2023-07-11T13:54:14.145Z,39.80
2023-07-11T13:56:40.989Z,40.84
2023-07-11T13:59:07.870Z,39.84
2023-07-11T14:01:41.197Z,40.79
2023-07-11T14:04:20.108Z,40.21
2023-07-11T14:06:47.723Z,40.42
2023-07-11T14:09:15.260Z,42.23
2023-07-11T14:11:50.884Z,41.09
2023-07-11T14:14:33.625Z,41.15
2023-07-11T14:17:08.842Z,40.86
2023-07-11T14:19:37.779Z,40.50
2023-07-11T14:22:14.445Z,41.12
2023-07-11T14:24:57.734Z,41.21
2023-07-11T14:27:24.575Z,41.13
2023-07-11T14:29:51.969Z,41.77
2023-07-11T14:32:20.866Z,41.67
2023-07-11T14:34:48.562Z,41.39
2023-07-11T14:37:22.156Z,41.87
2023-07-11T14:39:49.842Z,42.15
2023-07-11T14:42:25.021Z,43.16
2023-07-11T14:44:52.024Z,41.06
2023-07-11T14:47:19.134Z,42.42
2023-07-11T14:49:46.011Z,43.28
2023-07-11T14:52:32.761Z,43.37
2023-07-11T15:00:00.493Z,43.03
2023-07-11T15:02:34.210Z,43.58
2023-07-11T15:10:08.207Z,44.16
2023-07-11T15:17:47.062Z,45.87
2023-07-11T15:20:17.326Z,45.20
2023-07-11T15:22:46.140Z,45.21
2023-07-11T15:25:20.712Z,45.37
2023-07-11T15:27:48.421Z,46.39
2023-07-11T15:30:26.405Z,45.62
2023-07-11T15:35:48.876Z,46.05
2023-07-11T15:38:21.124Z,45.83
2023-07-11T15:40:51.429Z,46.94
2023-07-11T15:43:26.617Z,45.83
2023-07-11T15:45:56.076Z,46.52
2023-07-11T15:48:24.294Z,45.92
2023-07-11T15:50:53.665Z,46.61
2023-07-11T15:53:21.563Z,47.14
2023-07-11T15:55:49.322Z,47.54
2023-07-11T15:58:19.299Z,46.25
2023-07-11T16:00:46.879Z,47.36
2023-07-11T16:03:20.077Z,48.60
2023-07-11T16:05:58.257Z,46.61
2023-07-11T16:08:28.748Z,48.80
2023-07-11T16:11:01.384Z,48.63
2023-07-11T16:13:33.690Z,49.08
2023-07-11T16:16:02.704Z,51.10
2023-07-11T16:18:33.289Z,51.42
2023-07-11T16:21:00.613Z,52.72
2023-07-11T16:23:28.348Z,52.25
2023-07-11T16:25:56.361Z,54.85
2023-07-11T16:28:28.004Z,56.21
2023-07-11T16:31:04.653Z,58.75
2023-07-11T16:33:35.698Z,59.99
2023-07-11T16:36:03.095Z,61.31
2023-07-11T16:39:02.186Z,62.62
2023-07-11T16:41:29.894Z,63.60
2023-07-11T16:43:56.775Z,64.78
2023-07-11T16:46:23.701Z,65.76
2023-07-11T16:48:50.682Z,66.53
2023-07-11T16:51:23.729Z,67.37
2023-07-11T16:53:52.114Z,68.00
2023-07-11T16:56:33.762Z,69.02
2023-07-11T16:59:20.031Z,70.00
2023-07-11T17:01:52.700Z,71.00
2023-07-11T17:04:21.401Z,71.52
2023-07-11T17:06:53.302Z,72.26
2023-07-11T17:09:25.278Z,72.08
2023-07-11T17:11:56.212Z,72.83
2023-07-11T17:14:25.491Z,72.73
2023-07-11T17:17:03.361Z,73.72
2023-07-11T17:19:38.165Z,74.85
2023-07-11T17:22:06.276Z,75.38
2023-07-11T17:24:41.000Z,76.21
2023-07-11T17:27:24.411Z,77.44
2023-07-11T17:29:55.226Z,77.21
2023-07-11T17:32:30.663Z,77.92
2023-07-11T17:34:59.569Z,78.53
2023-07-11T17:37:34.955Z,79.13
2023-07-11T17:40:03.901Z,79.61
2023-07-11T17:42:30.895Z,79.60
2023-07-11T17:44:59.273Z,80.63
2023-07-11T17:49:59.196Z,81.58
2023-07-11T17:52:28.531Z,83.84
2023-07-11T17:54:56.205Z,86.67
2023-07-11T17:57:43.534Z,86.48
2023-07-11T18:00:17.201Z,87.50
2023-07-11T18:02:57.638Z,89.14
2023-07-11T18:05:26.232Z,91.51
2023-07-11T18:07:53.393Z,92.49
2023-07-11T18:10:32.099Z,92.38
2023-07-11T18:13:10.153Z,92.50
2023-07-11T18:15:44.607Z,94.13
2023-07-11T18:18:38.759Z,95.31
2023-07-11T18:21:05.767Z,95.81
2023-07-11T18:23:34.944Z,96.05
2023-07-11T18:26:23.753Z,95.96
2023-07-11T18:29:18.677Z,96.99
2023-07-11T18:31:47.899Z,97.95
2023-07-11T18:34:19.947Z,99.71
2023-07-11T18:36:48.165Z,99.42
2023-07-11T18:39:16.372Z,99.91
2023-07-11T18:41:43.991Z,100.00
2023-07-11T18:44:11.873Z,100.00
2023-07-11T18:47:36.275Z,100.00
2023-07-11T18:50:23.615Z,100.00
2023-07-11T18:52:50.467Z,100.00
2023-07-11T18:55:19.048Z,100.00
2023-07-11T18:57:47.198Z,100.00
2023-07-11T19:00:29.940Z,100.00
2023-07-11T19:02:57.075Z,100.00
2023-07-11T19:05:24.696Z,100.00
2023-07-11T19:07:55.008Z,100.00
2023-07-11T19:10:34.454Z,100.00
2023-07-11T19:13:01.937Z,100.00
2023-07-11T19:15:33.275Z,100.00
2023-07-11T19:18:22.570Z,100.00
2023-07-11T19:20:50.825Z,100.00
2023-07-11T19:23:20.924Z,100.00
2023-07-11T19:25:50.555Z,100.00
2023-07-11T19:28:21.547Z,100.00
2023-07-11T19:30:58.981Z,100.00
2023-07-11T19:33:29.783Z,100.00
2023-07-11T19:36:11.313Z,100.00
2023-07-11T19:38:39.320Z,100.00
2023-07-11T19:41:07.112Z,100.00
2023-07-11T19:43:34.438Z,100.00
2023-07-11T19:46:05.678Z,100.00
2023-07-11T19:48:33.098Z,100.00
2023-07-11T19:51:02.603Z,100.00
2023-07-11T19:53:33.817Z,100.00
2023-07-11T19:58:33.806Z,100.00
2023-07-11T20:01:02.576Z,100.00
2023-07-11T20:03:35.668Z,100.00
2023-07-11T20:06:03.616Z,100.00
2023-07-11T20:08:35.037Z,100.00
2023-07-11T20:11:04.764Z,100.00
2023-07-11T20:13:37.288Z,100.00
2023-07-11T20:16:16.223Z,100.00
2023-07-11T20:18:44.164Z,100.00
2023-07-11T20:21:19.299Z,100.00
2023-07-11T20:23:49.891Z,100.00
2023-07-11T20:26:27.598Z,100.00
2023-07-11T20:28:58.611Z,100.00
2023-07-11T20:31:27.826Z,100.00
2023-07-11T20:33:55.764Z,100.00
2023-07-11T20:36:29.837Z,100.00
2023-07-11T20:38:58.784Z,100.00
2023-07-11T20:41:26.315Z,100.00
2023-07-11T20:43:53.537Z,100.00
2023-07-11T20:46:23.074Z,100.00
2023-07-11T20:48:51.310Z,100.00
2023-07-11T20:51:20.373Z,100.00
2023-07-11T20:53:48.563Z,100.00
2023-07-11T20:56:22.284Z,100.00
2023-07-11T20:58:57.686Z,100.00
2023-07-11T21:01:25.693Z,100.00
2023-07-11T21:03:53.169Z,100.00
2023-07-11T21:06:20.175Z,100.00
2023-07-11T21:08:47.944Z,100.00
2023-07-11T21:11:15.525Z,100.00
2023-07-11T21:13:43.891Z,100.00
2023-07-11T21:16:18.355Z,100.00
2023-07-11T21:18:45.429Z,100.00
2023-07-11T21:21:14.246Z,100.00
2023-07-11T21:23:41.088Z,100.00
2023-07-11T21:26:17.530Z,100.00
2023-07-11T21:28:47.247Z,100.00
2023-07-11T21:31:17.175Z,100.00
2023-07-11T21:33:46.008Z,100.00
2023-07-11T21:36:18.641Z,100.00
2023-07-11T21:38:56.827Z,100.00
2023-07-11T21:41:24.848Z,100.00
2023-07-11T21:43:51.900Z,100.00
2023-07-11T21:46:20.851Z,100.00
2023-07-11T21:48:50.472Z,100.00
2023-07-11T21:51:18.714Z,100.00
2023-07-11T21:53:47.290Z,100.00
2023-07-11T21:56:22.059Z,100.00
2023-07-11T21:58:54.271Z,100.00
2023-07-11T22:01:24.218Z,100.00
2023-07-11T22:03:51.943Z,100.00
2023-07-11T22:06:28.685Z,100.00
2023-07-11T22:08:56.923Z,100.00
2023-07-11T22:11:24.672Z,100.00
2023-07-11T22:13:51.586Z,100.00
2023-07-11T22:16:24.282Z,100.00
2023-07-11T22:18:52.513Z,100.00
2023-07-11T22:21:22.363Z,100.00
2023-07-11T22:23:50.182Z,100.00
2023-07-11T22:26:29.468Z,100.00
2023-07-11T22:29:00.036Z,100.00
2023-07-11T22:31:27.888Z,100.00
2023-07-11T22:33:59.092Z,100.00
2023-07-11T22:36:26.055Z,100.00
2023-07-11T22:38:59.728Z,100.00
2023-07-11T22:41:27.225Z,100.00
2023-07-11T22:43:54.692Z,100.00
2023-07-11T22:46:25.044Z,100.00
2023-07-11T22:48:52.800Z,100.00
2023-07-11T22:51:20.240Z,100.00
2023-07-11T22:53:51.084Z,100.00
2023-07-11T22:56:29.657Z,100.00
2023-07-11T22:58:59.908Z,100.00
2023-07-11T23:01:27.987Z,100.00
2023-07-11T23:03:58.692Z,100.00
2023-07-11T23:06:28.829Z,100.00
2023-07-11T23:08:57.064Z,100.00
2023-07-11T23:11:25.648Z,100.00
2023-07-11T23:13:58.019Z,100.00
2023-07-11T23:16:31.324Z,100.00
2023-07-11T23:19:05.092Z,100.00
2023-07-11T23:21:33.642Z,100.00
2023-07-11T23:24:00.941Z,100.00
2023-07-11T23:26:33.292Z,100.00
2023-07-11T23:29:00.729Z,100.00
2023-07-11T23:31:27.957Z,100.00
2023-07-11T23:33:55.280Z,100.00
2023-07-11T23:36:25.195Z,100.00
2023-07-11T23:38:54.528Z,100.00
2023-07-11T23:41:25.205Z,100.00
2023-07-11T23:43:55.623Z,100.00
2023-07-11T23:46:34.295Z,100.00
2023-07-11T23:49:01.629Z,100.00
2023-07-11T23:51:30.312Z,100.00
2023-07-11T23:53:58.111Z,100.00
2023-07-11T23:56:31.491Z,100.00
2023-07-11T23:58:59.293Z,100.00
